AYNZ

Lae Nadzab  Airport

Nadzab, Papua New Guinea

AYNZ 180100Z 00000KT 9999 SCT020 BKN280 30/24 Q1008

Observed Flight Rules
Nov-18 @ 01:00 UTC (4 hours ago)
 
Visual Flight Rules
Wind Visibility Clouds
Calm 10,000+ meters
  • Scattered at 2,000' AGL
  • Broken at 28,000' AGL
Temperatures Readings
Current 30°C / 86°F
Dewpoint 24°C / 75°F
Humidity 70%
Altimeter 29.76" Hg
Pressure 1008 hPa
Elevation 70
Observed Flight Rules
Nov-18 @ 01:00 UTC
(4 hours ago)
 
VFR
Wind Visibility
Calm 10,000+ meters
Clouds
  • Scattered at 2,000' AGL
  • Broken at 28,000' AGL
Temperature Dewpoint
30°C / 86°F 24°C / 75°F
Humidity Altimeter Pressure
70% 29.76" Hg 1008 hPa